createdAt,value
2023-01-29T00:01:56.545Z,4.19
2023-01-29T00:04:23.827Z,4.19
2023-01-29T00:06:50.603Z,4.18
2023-01-29T00:09:17.488Z,4.16
2023-01-29T00:11:44.187Z,4.17
2023-01-29T00:14:10.979Z,4.17
2023-01-29T00:16:37.717Z,4.19
2023-01-29T00:19:04.687Z,4.19
2023-01-29T00:21:32.292Z,4.19
2023-01-29T00:23:59.588Z,4.20
2023-01-29T00:26:27.215Z,4.20
2023-01-29T00:28:54.279Z,4.20
2023-01-29T00:31:23.079Z,4.20
2023-01-29T00:33:50.729Z,4.20
2023-01-29T00:36:18.993Z,4.20
2023-01-29T00:38:54.494Z,4.19
2023-01-29T00:41:41.602Z,4.17
2023-01-29T00:44:27.316Z,4.17
2023-01-29T00:46:54.823Z,4.16
2023-01-29T00:49:21.748Z,4.13
2023-01-29T00:52:07.004Z,4.12
2023-01-29T00:54:33.760Z,4.16
2023-01-29T00:57:01.068Z,4.13
2023-01-29T00:59:27.813Z,4.10
2023-01-29T01:02:13.129Z,4.07
2023-01-29T01:04:40.026Z,4.06
2023-01-29T01:07:07.125Z,4.03
2023-01-29T01:09:55.557Z,4.00
2023-01-29T01:12:22.305Z,3.97
2023-01-29T01:14:49.232Z,3.96
2023-01-29T01:17:15.998Z,3.93
2023-01-29T01:19:42.707Z,3.89
2023-01-29T01:22:09.524Z,3.88
2023-01-29T01:24:36.807Z,3.87
2023-01-29T01:27:04.103Z,3.84
2023-01-29T01:29:30.964Z,3.83
2023-01-29T01:31:57.836Z,3.83
2023-01-29T01:34:27.101Z,3.79
2023-01-29T01:36:56.016Z,3.77
2023-01-29T01:39:26.229Z,3.76
2023-01-29T01:41:54.080Z,3.74
2023-01-29T01:44:56.223Z,3.70
2023-01-29T01:47:39.259Z,3.67
2023-01-29T01:50:20.047Z,3.65
2023-01-29T01:52:49.761Z,3.64
2023-01-29T01:55:18.217Z,3.63
2023-01-29T01:57:46.579Z,3.61
2023-01-29T02:00:16.168Z,3.60
2023-01-29T02:03:03.919Z,3.59
2023-01-29T02:05:53.306Z,3.59
2023-01-29T02:08:48.072Z,3.57
2023-01-29T02:11:15.162Z,3.57
2023-01-29T02:13:42.961Z,3.56
2023-01-29T02:16:09.738Z,3.55
2023-01-29T02:18:38.153Z,3.55
2023-01-29T02:21:32.274Z,3.54
2023-01-29T02:24:17.387Z,3.52
2023-01-29T02:27:20.816Z,3.54
2023-01-29T02:30:06.625Z,3.53
2023-01-29T02:33:01.354Z,3.49
2023-01-29T02:35:37.377Z,3.49
2023-01-29T02:38:27.113Z,3.50
2023-01-29T02:40:58.121Z,3.49
2023-01-29T02:43:38.692Z,3.47
2023-01-29T02:46:11.381Z,3.46
2023-01-29T02:48:47.740Z,3.45
2023-01-29T02:51:20.217Z,3.44
2023-01-29T02:54:06.159Z,3.41
2023-01-29T02:57:07.740Z,3.38
2023-01-29T02:59:42.590Z,3.37
2023-01-29T03:02:20.314Z,3.33
2023-01-29T03:04:52.797Z,3.30
2023-01-29T03:07:46.053Z,3.31
2023-01-29T03:10:36.906Z,3.30
2023-01-29T03:13:14.179Z,3.27
2023-01-29T03:15:48.492Z,3.26
2023-01-29T03:18:45.899Z,3.25
2023-01-29T03:21:38.023Z,3.24
2023-01-29T03:24:25.656Z,3.24
2023-01-29T03:27:11.555Z,3.24
2023-01-29T03:30:02.642Z,3.23
2023-01-29T03:32:48.454Z,3.23
2023-01-29T03:35:21.853Z,3.23
2023-01-29T03:37:49.028Z,3.23
2023-01-29T03:40:16.431Z,3.24
2023-01-29T03:43:10.891Z,3.22
2023-01-29T03:45:42.873Z,3.21
2023-01-29T03:48:15.681Z,3.21
2023-01-29T03:50:56.934Z,3.19
2023-01-29T03:53:36.446Z,3.19
2023-01-29T03:56:12.128Z,3.18
2023-01-29T03:58:59.179Z,3.18
2023-01-29T04:01:58.504Z,3.17
2023-01-29T04:04:29.463Z,3.18
2023-01-29T04:07:00.108Z,3.19
2023-01-29T04:09:33.002Z,3.19
2023-01-29T04:12:12.033Z,3.19
2023-01-29T04:14:42.748Z,3.20
2023-01-29T04:17:17.169Z,3.21
2023-01-29T04:19:50.940Z,3.21
2023-01-29T04:22:39.011Z,3.19
2023-01-29T04:25:08.988Z,3.20
2023-01-29T04:27:48.481Z,3.21
2023-01-29T04:30:37.033Z,3.20
2023-01-29T04:33:19.248Z,3.18
2023-01-29T04:35:55.227Z,3.16
2023-01-29T04:38:56.058Z,3.15
2023-01-29T04:41:36.787Z,3.17
2023-01-29T04:44:12.477Z,3.18
2023-01-29T04:47:08.556Z,3.13
2023-01-29T04:49:38.533Z,3.13
2023-01-29T04:52:14.852Z,3.12
2023-01-29T04:55:01.685Z,3.10
2023-01-29T04:57:46.311Z,3.08
2023-01-29T05:00:16.399Z,3.07
2023-01-29T05:02:44.798Z,3.04
2023-01-29T05:05:13.491Z,3.03
2023-01-29T05:07:40.763Z,3.01
2023-01-29T05:10:09.460Z,3.00
2023-01-29T05:12:37.340Z,2.98
2023-01-29T05:15:09.606Z,2.96
2023-01-29T05:17:36.527Z,2.93
2023-01-29T05:20:03.401Z,2.91
2023-01-29T05:22:30.780Z,2.88
2023-01-29T05:24:57.419Z,2.87
2023-01-29T05:27:50.055Z,2.85
2023-01-29T05:30:17.272Z,2.81
2023-01-29T05:32:44.119Z,2.79
2023-01-29T05:35:11.026Z,2.78
2023-01-29T05:37:37.953Z,2.75
2023-01-29T05:40:05.199Z,2.73
2023-01-29T05:42:32.814Z,2.70
2023-01-29T05:44:59.686Z,2.68
2023-01-29T05:47:26.455Z,2.66
2023-01-29T05:49:53.179Z,2.61
2023-01-29T05:52:19.800Z,2.58
2023-01-29T05:54:46.673Z,2.56
2023-01-29T05:57:14.807Z,2.55
2023-01-29T05:59:41.534Z,2.53
2023-01-29T06:02:08.260Z,2.51
2023-01-29T06:04:35.278Z,2.50
2023-01-29T06:07:03.451Z,2.48
2023-01-29T06:09:30.393Z,2.44
2023-01-29T06:11:57.126Z,2.43
2023-01-29T06:14:24.101Z,2.40
2023-01-29T06:16:50.874Z,2.36
2023-01-29T06:19:18.308Z,2.34
2023-01-29T06:21:44.962Z,2.32
2023-01-29T06:24:11.876Z,2.29
2023-01-29T06:26:38.639Z,2.26
2023-01-29T06:29:05.697Z,2.25
2023-01-29T06:31:38.799Z,2.23
2023-01-29T06:34:07.533Z,2.21
2023-01-29T06:36:35.543Z,2.20
2023-01-29T06:39:02.566Z,2.16
2023-01-29T06:41:29.395Z,2.15
2023-01-29T06:43:56.325Z,2.10
2023-01-29T06:46:23.125Z,2.09
2023-01-29T06:48:50.251Z,2.09
2023-01-29T06:51:17.278Z,2.09
2023-01-29T06:53:46.386Z,2.08
2023-01-29T06:56:16.788Z,2.05
2023-01-29T06:58:43.716Z,2.04
2023-01-29T07:01:17.586Z,2.03
2023-01-29T07:03:55.962Z,2.00
2023-01-29T07:06:28.105Z,1.99
2023-01-29T07:08:55.058Z,1.97
2023-01-29T07:11:21.935Z,1.97
2023-01-29T07:13:48.752Z,1.94
2023-01-29T07:16:16.120Z,1.75
2023-01-29T07:18:42.978Z,0.72
2023-01-29T07:21:09.751Z,-0.05
2023-01-29T07:23:36.626Z,-0.54
2023-01-29T07:26:05.557Z,-0.84
2023-01-29T07:28:36.336Z,-1.19
2023-01-29T07:31:03.548Z,-1.41
2023-01-29T07:33:30.281Z,-1.62
2023-01-29T07:35:57.821Z,-1.65
2023-01-29T07:38:24.535Z,-1.62
2023-01-29T07:40:54.796Z,-1.60
2023-01-29T07:43:21.698Z,-1.52
2023-01-29T07:45:48.479Z,-1.43
2023-01-29T07:48:15.566Z,-1.40
2023-01-29T07:50:44.320Z,-1.38
2023-01-29T07:53:15.395Z,-1.37
2023-01-29T07:55:45.873Z,-1.42
2023-01-29T07:58:12.983Z,-1.49
2023-01-29T08:00:39.952Z,-1.48
2023-01-29T08:03:13.280Z,-1.41
2023-01-29T08:05:40.049Z,-1.39
2023-01-29T08:08:07.784Z,-1.34
2023-01-29T08:10:35.967Z,-1.34
2023-01-29T08:13:04.295Z,-1.29
2023-01-29T08:15:31.445Z,-1.14
2023-01-29T08:17:58.606Z,-1.08
2023-01-29T08:20:25.846Z,-1.09
2023-01-29T08:23:03.219Z,-0.98
2023-01-29T08:25:30.353Z,-0.94
2023-01-29T08:27:58.117Z,-0.97
2023-01-29T08:30:33.927Z,-0.91
2023-01-29T08:33:01.161Z,-0.75
2023-01-29T08:35:27.983Z,-0.69
2023-01-29T08:37:56.367Z,-0.68
2023-01-29T08:40:23.929Z,-0.64
2023-01-29T08:42:50.805Z,-0.60
2023-01-29T08:45:18.057Z,-0.59
2023-01-29T08:47:49.527Z,-0.54
2023-01-29T08:50:17.775Z,-0.62
2023-01-29T08:52:45.383Z,-0.62
2023-01-29T08:55:12.849Z,-0.57
2023-01-29T08:57:40.205Z,-0.52
2023-01-29T09:00:09.332Z,-0.46
2023-01-29T09:02:36.438Z,-0.46
2023-01-29T09:05:04.303Z,-0.46
2023-01-29T09:07:31.113Z,-0.43
2023-01-29T09:09:57.909Z,-0.40
2023-01-29T09:12:24.876Z,-0.44
2023-01-29T09:14:51.529Z,-0.41
2023-01-29T09:17:18.475Z,-0.36
2023-01-29T09:19:45.309Z,-0.40
2023-01-29T09:22:12.224Z,-0.49
2023-01-29T09:24:38.931Z,-0.58
2023-01-29T09:27:06.442Z,-0.57
2023-01-29T09:29:35.886Z,-0.51
2023-01-29T09:32:04.821Z,-0.45
2023-01-29T09:34:31.537Z,-0.30
2023-01-29T09:36:58.467Z,-0.12
2023-01-29T09:39:25.336Z,0.03
2023-01-29T09:42:10.170Z,0.17
2023-01-29T09:44:56.564Z,0.28
2023-01-29T09:47:26.331Z,0.38
2023-01-29T09:50:22.638Z,0.49
2023-01-29T09:56:39.236Z,0.58
2023-01-29T09:59:06.525Z,0.52
2023-01-29T10:01:52.047Z,0.53
2023-01-29T10:04:56.213Z,0.44
2023-01-29T10:07:45.980Z,0.40
2023-01-29T10:10:42.919Z,0.40
2023-01-29T10:13:33.511Z,0.57
2023-01-29T10:16:27.835Z,0.70
2023-01-29T10:19:26.788Z,0.88
2023-01-29T10:22:15.114Z,1.00
2023-01-29T10:24:57.949Z,1.14
2023-01-29T10:27:30.580Z,1.28
2023-01-29T10:29:58.898Z,1.39
2023-01-29T10:32:26.488Z,1.43
2023-01-29T10:35:23.406Z,1.49
2023-01-29T10:37:55.041Z,1.51
2023-01-29T10:40:35.194Z,1.48
2023-01-29T10:43:11.326Z,1.47
2023-01-29T10:45:46.242Z,1.34
2023-01-29T10:48:52.022Z,1.33
2023-01-29T10:51:59.965Z,1.39
2023-01-29T10:55:15.598Z,1.54
2023-01-29T10:57:55.656Z,1.80
2023-01-29T11:00:25.240Z,2.03
2023-01-29T11:02:52.974Z,2.20
2023-01-29T11:05:26.707Z,2.33
2023-01-29T11:08:03.972Z,2.50
2023-01-29T11:10:34.019Z,2.62
2023-01-29T11:13:00.873Z,2.72
2023-01-29T11:15:35.089Z,2.82
2023-01-29T11:18:27.381Z,2.85
2023-01-29T11:21:03.746Z,2.86
2023-01-29T11:23:33.079Z,2.91
2023-01-29T11:26:00.770Z,2.91
2023-01-29T11:28:45.009Z,2.87
2023-01-29T11:31:31.230Z,2.81
2023-01-29T11:34:12.962Z,2.72
2023-01-29T11:36:39.940Z,2.62
2023-01-29T11:39:19.999Z,2.58
2023-01-29T11:41:59.371Z,2.52
2023-01-29T11:44:51.391Z,2.66
2023-01-29T11:47:26.004Z,2.59
2023-01-29T11:50:00.476Z,2.43
2023-01-29T11:52:35.477Z,2.22
2023-01-29T11:55:06.273Z,2.20
2023-01-29T11:57:37.103Z,2.34
2023-01-29T12:00:21.428Z,2.33
2023-01-29T12:03:04.786Z,2.34
2023-01-29T12:05:31.778Z,2.30
2023-01-29T12:08:00.878Z,2.30
2023-01-29T12:10:39.485Z,2.31
2023-01-29T12:13:07.910Z,2.17
2023-01-29T12:15:34.675Z,2.10
2023-01-29T12:18:03.735Z,2.09
2023-01-29T12:20:39.198Z,2.02
2023-01-29T12:23:38.567Z,2.02
2023-01-29T12:26:15.970Z,2.04
2023-01-29T12:29:00.201Z,2.09
2023-01-29T12:31:26.857Z,2.34
2023-01-29T12:34:48.141Z,2.65
2023-01-29T12:37:22.482Z,2.93
2023-01-29T12:39:50.685Z,3.22
2023-01-29T12:42:17.443Z,3.45
2023-01-29T12:44:45.834Z,3.76
2023-01-29T12:47:17.723Z,3.74
2023-01-29T12:49:45.324Z,3.72
2023-01-29T12:52:18.027Z,3.61
2023-01-29T12:54:59.427Z,3.53
2023-01-29T12:57:42.883Z,3.47
2023-01-29T13:00:20.707Z,3.38
2023-01-29T13:03:00.100Z,3.30
2023-01-29T13:05:28.460Z,3.12
2023-01-29T13:07:57.999Z,3.02
2023-01-29T13:10:29.410Z,2.85
2023-01-29T13:12:58.718Z,2.76
2023-01-29T13:15:26.081Z,2.86
2023-01-29T13:18:07.179Z,2.96
2023-01-29T13:20:34.811Z,3.02
2023-01-29T13:23:25.625Z,3.04
2023-01-29T13:25:53.028Z,2.87
2023-01-29T13:28:24.999Z,2.78
2023-01-29T13:31:10.987Z,2.63
2023-01-29T13:33:38.323Z,2.47
2023-01-29T13:36:05.679Z,2.33
2023-01-29T13:38:33.298Z,2.19
2023-01-29T13:41:03.852Z,2.15
2023-01-29T13:43:34.473Z,2.35
2023-01-29T13:46:01.276Z,2.32
2023-01-29T13:48:28.761Z,2.31
2023-01-29T13:50:56.025Z,2.28
2023-01-29T13:53:27.274Z,2.13
2023-01-29T13:55:54.028Z,2.35
2023-01-29T13:58:32.970Z,2.70
2023-01-29T14:01:01.724Z,3.24
2023-01-29T14:03:35.801Z,3.40
2023-01-29T14:06:12.032Z,3.29
2023-01-29T14:08:43.545Z,3.09
2023-01-29T14:11:13.342Z,2.98
2023-01-29T14:13:41.981Z,2.82
2023-01-29T14:16:14.434Z,2.78
2023-01-29T14:18:47.316Z,2.74
2023-01-29T14:21:13.935Z,2.81
2023-01-29T14:23:50.326Z,2.80
2023-01-29T14:26:26.282Z,2.89
2023-01-29T14:29:18.739Z,2.85
2023-01-29T14:31:54.737Z,2.86
2023-01-29T14:34:23.139Z,2.82
2023-01-29T14:36:55.363Z,2.67
2023-01-29T14:39:31.014Z,2.56
2023-01-29T14:41:57.652Z,2.48
2023-01-29T14:44:43.383Z,2.55
2023-01-29T14:47:20.210Z,2.73
2023-01-29T14:49:56.931Z,2.89
2023-01-29T14:52:30.485Z,2.92
2023-01-29T14:54:59.528Z,2.89
2023-01-29T14:57:26.116Z,2.77
2023-01-29T15:00:02.274Z,2.75
2023-01-29T15:02:33.768Z,2.73
2023-01-29T15:05:00.713Z,2.73
2023-01-29T15:07:28.650Z,2.69
2023-01-29T15:10:01.337Z,2.75
2023-01-29T15:12:40.111Z,2.73
2023-01-29T15:15:09.744Z,2.74
2023-01-29T15:17:48.578Z,2.75
2023-01-29T15:20:34.535Z,2.57
2023-01-29T15:23:03.342Z,2.21
2023-01-29T15:25:33.904Z,1.96
2023-01-29T15:28:02.245Z,1.67
2023-01-29T15:30:32.814Z,1.39
2023-01-29T15:32:59.440Z,1.17
2023-01-29T15:35:30.542Z,1.01
2023-01-29T15:38:07.544Z,0.92
2023-01-29T15:40:34.615Z,0.84
2023-01-29T15:43:01.175Z,0.85
2023-01-29T15:45:31.695Z,0.82
2023-01-29T15:48:03.859Z,0.83
2023-01-29T15:50:30.991Z,0.77
2023-01-29T15:52:57.699Z,0.67
2023-01-29T15:55:24.426Z,0.62
2023-01-29T15:57:51.046Z,0.64
2023-01-29T16:00:28.668Z,0.63
2023-01-29T16:02:56.025Z,0.60
2023-01-29T16:05:27.695Z,0.66
2023-01-29T16:07:54.464Z,0.63
2023-01-29T16:10:25.078Z,0.55
2023-01-29T16:12:51.920Z,0.48
2023-01-29T16:15:21.758Z,0.42
2023-01-29T16:17:48.490Z,0.29
2023-01-29T16:20:29.841Z,0.14
2023-01-29T16:22:56.559Z,0.07
2023-01-29T16:25:23.219Z,0.02
2023-01-29T16:27:49.868Z,-0.05
2023-01-29T16:30:16.906Z,-0.21
2023-01-29T16:32:43.538Z,-0.36
2023-01-29T16:35:14.869Z,-0.50
2023-01-29T16:37:41.887Z,-0.61
2023-01-29T16:40:16.336Z,-0.67
2023-01-29T16:42:43.055Z,-0.72
2023-01-29T16:45:29.927Z,-0.75
2023-01-29T16:48:20.787Z,-0.74
2023-01-29T16:50:54.926Z,-0.72
2023-01-29T16:53:23.350Z,-0.84
2023-01-29T16:55:50.495Z,-1.00
2023-01-29T16:58:20.886Z,-1.06
2023-01-29T17:00:57.770Z,-1.07
2023-01-29T17:03:24.886Z,-1.18
2023-01-29T17:05:51.789Z,-1.14
2023-01-29T17:08:21.422Z,-1.14
2023-01-29T17:10:48.661Z,-1.18
2023-01-29T17:13:18.625Z,-1.25
2023-01-29T17:15:46.925Z,-0.99
2023-01-29T17:18:22.016Z,-0.62
2023-01-29T17:20:49.612Z,-0.29
2023-01-29T17:23:16.588Z,-0.01
2023-01-29T17:25:48.396Z,0.23
2023-01-29T17:28:17.375Z,0.43
2023-01-29T17:30:50.612Z,0.60
2023-01-29T17:33:25.858Z,0.77
2023-01-29T17:35:53.181Z,0.90
2023-01-29T17:38:26.291Z,1.01
2023-01-29T17:41:05.483Z,1.11
2023-01-29T17:43:36.810Z,1.22
2023-01-29T17:46:13.096Z,1.29
2023-01-29T17:48:41.402Z,1.37
2023-01-29T17:51:14.852Z,1.40
2023-01-29T17:53:45.802Z,1.47
2023-01-29T17:56:17.250Z,1.51
2023-01-29T17:58:44.078Z,1.55
2023-01-29T18:01:10.720Z,1.58
2023-01-29T18:03:37.641Z,1.60
2023-01-29T18:06:07.370Z,1.62
2023-01-29T18:08:36.316Z,1.66
2023-01-29T18:11:03.065Z,1.68
2023-01-29T18:13:30.039Z,1.69
2023-01-29T18:15:56.949Z,1.70
2023-01-29T18:18:24.836Z,1.73
2023-01-29T18:20:51.691Z,1.75
2023-01-29T18:23:18.444Z,1.76
2023-01-29T18:25:45.590Z,1.76
2023-01-29T18:28:19.713Z,1.76
2023-01-29T18:30:47.569Z,1.77
2023-01-29T18:33:21.206Z,1.75
2023-01-29T18:35:55.817Z,1.76
2023-01-29T18:38:23.560Z,1.77
2023-01-29T18:40:50.490Z,1.77
2023-01-29T18:43:17.316Z,1.78
2023-01-29T18:45:44.166Z,1.78
2023-01-29T18:48:11.251Z,1.80
2023-01-29T18:50:38.038Z,1.82
2023-01-29T18:53:04.950Z,1.81
2023-01-29T18:55:31.932Z,1.81
2023-01-29T18:58:36.394Z,1.82
2023-01-29T19:01:10.362Z,1.81
2023-01-29T19:03:41.010Z,1.81
2023-01-29T19:06:10.170Z,1.81
2023-01-29T19:08:37.407Z,1.82
2023-01-29T19:11:08.464Z,1.81
2023-01-29T19:13:36.769Z,1.81
2023-01-29T19:16:07.571Z,1.80
2023-01-29T19:18:34.333Z,1.80
2023-01-29T19:21:01.468Z,1.78
2023-01-29T19:23:28.467Z,1.79
2023-01-29T19:25:58.033Z,1.77
2023-01-29T19:28:24.879Z,1.77
2023-01-29T19:30:51.836Z,1.76
2023-01-29T19:33:18.625Z,1.75
2023-01-29T19:35:45.529Z,1.73
2023-01-29T19:38:15.359Z,1.72
2023-01-29T19:40:42.297Z,1.71
2023-01-29T19:43:09.485Z,1.71
2023-01-29T19:45:48.949Z,1.71
2023-01-29T19:48:23.584Z,1.72
2023-01-29T19:51:43.392Z,1.72
2023-01-29T19:54:11.294Z,1.69
2023-01-29T19:56:39.231Z,1.68
2023-01-29T19:59:08.001Z,1.68
2023-01-29T20:01:35.498Z,1.68
2023-01-29T20:04:02.582Z,1.68
2023-01-29T20:06:31.126Z,1.69
2023-01-29T20:08:58.061Z,1.68
2023-01-29T20:11:25.354Z,1.68
2023-01-29T20:13:52.841Z,1.69
2023-01-29T20:16:20.382Z,1.68
2023-01-29T20:19:14.949Z,1.67
2023-01-29T20:22:31.016Z,1.67
2023-01-29T20:24:58.362Z,1.67
2023-01-29T20:27:25.447Z,1.66
2023-01-29T20:29:52.733Z,1.65
2023-01-29T20:32:20.059Z,1.65
2023-01-29T20:34:52.263Z,1.65
2023-01-29T20:37:20.487Z,1.65
2023-01-29T20:39:48.220Z,1.64
2023-01-29T20:42:17.707Z,1.64
2023-01-29T20:44:47.006Z,1.63
2023-01-29T20:47:14.041Z,1.63
2023-01-29T20:49:41.211Z,1.64
2023-01-29T20:52:08.987Z,1.64
2023-01-29T20:54:37.424Z,1.63
2023-01-29T20:57:05.236Z,1.63
2023-01-29T20:59:32.442Z,1.62
2023-01-29T21:02:01.165Z,1.62
2023-01-29T21:04:28.316Z,1.64
2023-01-29T21:06:57.156Z,1.63
2023-01-29T21:09:27.213Z,1.63
2023-01-29T21:12:01.383Z,1.62
2023-01-29T21:14:28.949Z,1.63
2023-01-29T21:16:55.655Z,1.64
2023-01-29T21:19:22.865Z,1.65
2023-01-29T21:21:49.731Z,1.66
2023-01-29T21:24:18.876Z,1.66
2023-01-29T21:26:46.470Z,1.67
2023-01-29T21:29:14.855Z,1.66
2023-01-29T21:31:42.931Z,1.63
2023-01-29T21:34:09.927Z,1.62
2023-01-29T21:36:37.150Z,1.61
2023-01-29T21:39:16.683Z,1.61
2023-01-29T21:42:09.443Z,1.61
2023-01-29T21:44:37.054Z,1.58
2023-01-29T21:47:22.729Z,1.57
2023-01-29T21:49:49.531Z,1.55
2023-01-29T21:52:16.316Z,1.54
2023-01-29T21:54:49.108Z,1.52
2023-01-29T21:57:17.314Z,1.52
2023-01-29T21:59:45.152Z,1.52
2023-01-29T22:02:20.915Z,1.54
2023-01-29T22:04:47.798Z,1.55
2023-01-29T22:07:14.500Z,1.55
2023-01-29T22:09:41.547Z,1.55
2023-01-29T22:12:08.870Z,1.54
2023-01-29T22:14:36.411Z,1.54
2023-01-29T22:17:03.314Z,1.55
2023-01-29T22:19:30.054Z,1.56
2023-01-29T22:21:56.887Z,1.56
2023-01-29T22:24:23.857Z,1.57
2023-01-29T22:26:50.836Z,1.58
2023-01-29T22:29:18.068Z,1.58
2023-01-29T22:31:44.853Z,1.58
2023-01-29T22:34:12.613Z,1.60
2023-01-29T22:36:39.750Z,1.60
2023-01-29T22:39:08.698Z,1.61
2023-01-29T22:41:36.197Z,1.63
2023-01-29T22:44:03.144Z,1.64
2023-01-29T22:46:29.982Z,1.66
2023-01-29T22:48:56.920Z,1.69
2023-01-29T22:51:23.728Z,1.70
2023-01-29T22:53:52.687Z,1.72
2023-01-29T22:56:20.872Z,1.73
2023-01-29T22:58:54.959Z,1.74
2023-01-29T23:01:26.559Z,1.76
2023-01-29T23:03:53.393Z,1.77
2023-01-29T23:06:21.762Z,1.80
2023-01-29T23:08:49.271Z,1.81
2023-01-29T23:11:20.444Z,1.84
2023-01-29T23:13:49.533Z,1.87
2023-01-29T23:16:17.553Z,1.88
2023-01-29T23:18:44.953Z,1.89
2023-01-29T23:21:13.324Z,1.91
2023-01-29T23:23:40.491Z,1.94
2023-01-29T23:26:26.755Z,1.96
2023-01-29T23:28:53.662Z,1.98
2023-01-29T23:31:20.745Z,1.99
2023-01-29T23:33:48.505Z,2.01
2023-01-29T23:36:15.264Z,2.02
2023-01-29T23:38:42.062Z,2.03
2023-01-29T23:41:08.831Z,2.03
2023-01-29T23:43:35.559Z,2.05
2023-01-29T23:46:02.258Z,2.09
2023-01-29T23:48:29.167Z,2.12
2023-01-29T23:50:55.859Z,2.13
2023-01-29T23:53:22.726Z,2.16
2023-01-29T23:55:59.023Z,2.16
2023-01-29T23:58:26.258Z,2.16
